sensor_id;sensor_type;location;lat;lon;timestamp;pressure;altitude;pressure_sealevel;temperature;humidity
78986;BME280;68384;55.750;48.746;2023-04-03T00:00:21;99316.06;;;5.59;68.23
78986;BME280;68384;55.750;48.746;2023-04-03T00:01:25;99313.44;;;5.57;68.23
78986;BME280;68384;55.750;48.746;2023-04-03T00:02:39;99312.75;;;5.62;68.17
78986;BME280;68384;55.750;48.746;2023-04-03T00:03:43;99303.03;;;5.54;68.21
78986;BME280;68384;55.750;48.746;2023-04-03T00:04:47;99314.31;;;5.58;68.07
78986;BME280;68384;55.750;48.746;2023-04-03T00:05:51;99316.81;;;5.56;68.18
78986;BME280;68384;55.750;48.746;2023-04-03T00:06:55;99313.31;;;5.54;68.42
78986;BME280;68384;55.750;48.746;2023-04-03T00:07:58;99308.16;;;5.54;68.56
78986;BME280;68384;55.750;48.746;2023-04-03T00:09:02;99308.16;;;5.54;68.37
78986;BME280;68384;55.750;48.746;2023-04-03T00:10:06;99299.38;;;5.49;68.44
78986;BME280;68384;55.750;48.746;2023-04-03T00:11:10;99314.06;;;5.52;68.21
78986;BME280;68384;55.750;48.746;2023-04-03T00:12:12;99305.41;;;5.50;68.10
78986;BME280;68384;55.750;48.746;2023-04-03T00:13:17;99289.63;;;5.42;68.31
78986;BME280;68384;55.750;48.746;2023-04-03T00:14:20;99309.72;;;5.51;68.49
78986;BME280;68384;55.750;48.746;2023-04-03T00:15:24;99303.69;;;5.50;68.11
78986;BME280;68384;55.750;48.746;2023-04-03T00:16:28;99305.41;;;5.50;68.57
78986;BME280;68384;55.750;48.746;2023-04-03T00:17:32;99307.09;;;5.49;68.18
78986;BME280;68384;55.750;48.746;2023-04-03T00:18:35;99301.81;;;5.46;68.32
78986;BME280;68384;55.750;48.746;2023-04-03T00:19:38;99275.44;;;5.31;68.10
78986;BME280;68384;55.750;48.746;2023-04-03T00:20:41;99313.13;;;5.50;68.33
78986;BME280;68384;55.750;48.746;2023-04-03T00:21:44;99308.81;;;5.50;68.16
78986;BME280;68384;55.750;48.746;2023-04-03T00:22:47;99310.53;;;5.50;68.28
78986;BME280;68384;55.750;48.746;2023-04-03T00:23:50;99305.31;;;5.48;68.23
78986;BME280;68384;55.750;48.746;2023-04-03T00:24:53;99311.34;;;5.49;68.20
78986;BME280;68384;55.750;48.746;2023-04-03T00:25:56;99307.09;;;5.49;68.35
78986;BME280;68384;55.750;48.746;2023-04-03T00:26:59;99304.44;;;5.48;68.04
78986;BME280;68384;55.750;48.746;2023-04-03T00:28:03;99301.06;;;5.49;68.15
78986;BME280;68384;55.750;48.746;2023-04-03T00:29:06;99302.84;;;5.50;68.04
78986;BME280;68384;55.750;48.746;2023-04-03T00:30:13;99275.56;;;5.34;68.18
78986;BME280;68384;55.750;48.746;2023-04-03T00:31:16;99300.25;;;5.50;68.19
78986;BME280;68384;55.750;48.746;2023-04-03T00:32:22;99306.25;;;5.50;67.82
78986;BME280;68384;55.750;48.746;2023-04-03T00:33:24;99296.72;;;5.48;67.70
78986;BME280;68384;55.750;48.746;2023-04-03T00:34:28;99295.91;;;5.49;67.73
78986;BME280;68384;55.750;48.746;2023-04-03T00:35:31;99301.13;;;5.50;67.56
78986;BME280;68384;55.750;48.746;2023-04-03T00:36:35;99291.72;;;5.51;67.70
78986;BME280;68384;55.750;48.746;2023-04-03T00:37:38;99300.25;;;5.50;67.51
78986;BME280;68384;55.750;48.746;2023-04-03T00:38:41;99271.31;;;5.35;67.83
78986;BME280;68384;55.750;48.746;2023-04-03T00:39:44;99299.38;;;5.49;67.49
78986;BME280;68384;55.750;48.746;2023-04-03T00:40:48;99298.53;;;5.50;67.37
78986;BME280;68384;55.750;48.746;2023-04-03T00:41:51;99294.25;;;5.49;67.58
78986;BME280;68384;55.750;48.746;2023-04-03T00:42:57;99304.56;;;5.51;67.48
78986;BME280;68384;55.750;48.746;2023-04-03T00:44:20;99295.97;;;5.50;67.58
78986;BME280;68384;55.750;48.746;2023-04-03T00:45:32;99294.97;;;5.47;67.40
78986;BME280;68384;55.750;48.746;2023-04-03T00:46:35;99305.44;;;5.51;67.53
78986;BME280;68384;55.750;48.746;2023-04-03T00:47:41;99303.69;;;5.50;67.34
78986;BME280;68384;55.750;48.746;2023-04-03T00:48:45;99301.13;;;5.50;67.56
78986;BME280;68384;55.750;48.746;2023-04-03T00:49:49;99301.13;;;5.50;67.49
78986;BME280;68384;55.750;48.746;2023-04-03T00:50:53;99297.69;;;5.50;67.45
78986;BME280;68384;55.750;48.746;2023-04-03T00:51:58;99296.81;;;5.49;67.47
78986;BME280;68384;55.750;48.746;2023-04-03T00:53:02;99299.44;;;5.51;67.40
78986;BME280;68384;55.750;48.746;2023-04-03T00:54:07;99295.13;;;5.50;67.18
78986;BME280;68384;55.750;48.746;2023-04-03T00:55:10;99296.81;;;5.49;67.43
78986;BME280;68384;55.750;48.746;2023-04-03T00:56:16;99297.59;;;5.48;67.29
78986;BME280;68384;55.750;48.746;2023-04-03T00:57:21;99297.59;;;5.48;67.22
78986;BME280;68384;55.750;48.746;2023-04-03T00:58:32;99301.00;;;5.47;67.27
78986;BME280;68384;55.750;48.746;2023-04-03T00:59:40;99303.50;;;5.46;67.27
78986;BME280;68384;55.750;48.746;2023-04-03T01:00:48;99298.31;;;5.44;67.13
78986;BME280;68384;55.750;48.746;2023-04-03T01:01:56;99288.69;;;5.40;67.30
78986;BME280;68384;55.750;48.746;2023-04-03T01:03:01;99302.56;;;5.44;67.47
78986;BME280;68384;55.750;48.746;2023-04-03T01:04:05;99297.19;;;5.39;67.24
78986;BME280;68384;55.750;48.746;2023-04-03T01:05:09;99300.75;;;5.41;67.36
78986;BME280;68384;55.750;48.746;2023-04-03T01:06:14;99299.84;;;5.41;67.72
78986;BME280;68384;55.750;48.746;2023-04-03T01:07:22;99302.41;;;5.41;67.57
78986;BME280;68384;55.750;48.746;2023-04-03T01:08:26;99293.81;;;5.40;67.47
78986;BME280;68384;55.750;48.746;2023-04-03T01:09:29;99298.97;;;5.40;67.57
78986;BME280;68384;55.750;48.746;2023-04-03T01:10:33;99303.97;;;5.37;67.47
78986;BME280;68384;55.750;48.746;2023-04-03T01:11:37;99302.22;;;5.36;67.56
78986;BME280;68384;55.750;48.746;2023-04-03T01:12:40;99304.84;;;5.38;67.76
78986;BME280;68384;55.750;48.746;2023-04-03T01:13:48;99304.81;;;5.36;67.41
78986;BME280;68384;55.750;48.746;2023-04-03T01:14:54;99307.28;;;5.35;67.58
78986;BME280;68384;55.750;48.746;2023-04-03T01:16:00;99302.22;;;5.36;67.36
78986;BME280;68384;55.750;48.746;2023-04-03T01:17:26;99300.47;;;5.35;67.37
78986;BME280;68384;55.750;48.746;2023-04-03T01:18:31;99305.59;;;5.35;67.42
78986;BME280;68384;55.750;48.746;2023-04-03T01:19:37;99302.16;;;5.35;67.18
78986;BME280;68384;55.750;48.746;2023-04-03T01:20:58;99303.69;;;5.31;67.31
78986;BME280;68384;55.750;48.746;2023-04-03T01:22:19;99305.41;;;5.31;67.46
78986;BME280;68384;55.750;48.746;2023-04-03T01:23:40;99304.53;;;5.30;67.28
78986;BME280;68384;55.750;48.746;2023-04-03T01:24:46;99299.38;;;5.30;67.38
78986;BME280;68384;55.750;48.746;2023-04-03T01:25:52;99302.75;;;5.29;67.22
78986;BME280;68384;55.750;48.746;2023-04-03T01:26:55;99301.06;;;5.30;67.19
78986;BME280;68384;55.750;48.746;2023-04-03T01:27:59;99303.59;;;5.28;66.91
78986;BME280;68384;55.750;48.746;2023-04-03T01:29:03;99302.69;;;5.28;67.56
78986;BME280;68384;55.750;48.746;2023-04-03T01:30:08;99297.47;;;5.26;67.37
78986;BME280;68384;55.750;48.746;2023-04-03T01:31:15;99298.31;;;5.25;67.50
78986;BME280;68384;55.750;48.746;2023-04-03T01:32:24;99306.03;;;5.25;67.67
78986;BME280;68384;55.750;48.746;2023-04-03T01:33:27;99299.91;;;5.23;67.52
78986;BME280;68384;55.750;48.746;2023-04-03T01:34:31;99305.06;;;5.23;67.76
78986;BME280;68384;55.750;48.746;2023-04-03T01:35:34;99292.63;;;5.13;67.75
78986;BME280;68384;55.750;48.746;2023-04-03T01:36:38;99310.06;;;5.20;67.88
78986;BME280;68384;55.750;48.746;2023-04-03T01:37:40;99308.31;;;5.19;67.70
78986;BME280;68384;55.750;48.746;2023-04-03T01:38:44;99302.16;;;5.16;67.78
78986;BME280;68384;55.750;48.746;2023-04-03T01:39:47;99307.22;;;5.14;67.75
78986;BME280;68384;55.750;48.746;2023-04-03T01:40:50;99312.28;;;5.13;67.95
78986;BME280;68384;55.750;48.746;2023-04-03T01:41:53;99306.94;;;5.08;68.43
78986;BME280;68384;55.750;48.746;2023-04-03T01:42:57;99307.56;;;5.03;68.18
78986;BME280;68384;55.750;48.746;2023-04-03T01:43:59;99304.91;;;5.01;68.33
78986;BME280;68384;55.750;48.746;2023-04-03T01:45:03;99297.94;;;4.98;68.40
78986;BME280;68384;55.750;48.746;2023-04-03T01:46:06;99309.03;;;4.97;67.91
78986;BME280;68384;55.750;48.746;2023-04-03T01:47:09;99311.53;;;4.96;68.43
78986;BME280;68384;55.750;48.746;2023-04-03T01:48:13;99307.06;;;4.92;68.55
78986;BME280;68384;55.750;48.746;2023-04-03T01:49:17;99312.06;;;4.89;68.52
78986;BME280;68384;55.750;48.746;2023-04-03T01:50:20;99308.56;;;4.87;68.76
78986;BME280;68384;55.750;48.746;2023-04-03T01:51:23;99311.03;;;4.85;68.88
78986;BME280;68384;55.750;48.746;2023-04-03T01:52:26;99311.75;;;4.83;68.93
78986;BME280;68384;55.750;48.746;2023-04-03T01:53:29;99312.63;;;4.83;68.75
78986;BME280;68384;55.750;48.746;2023-04-03T01:54:32;99312.56;;;4.82;68.65
78986;BME280;68384;55.750;48.746;2023-04-03T01:55:35;99312.47;;;4.80;68.75
78986;BME280;68384;55.750;48.746;2023-04-03T01:56:38;99309.84;;;4.79;68.67
78986;BME280;68384;55.750;48.746;2023-04-03T01:57:42;99313.22;;;4.78;68.60
78986;BME280;68384;55.750;48.746;2023-04-03T01:58:44;99308.81;;;4.75;68.71
78986;BME280;68384;55.750;48.746;2023-04-03T01:59:48;99311.41;;;4.75;69.18
78986;BME280;68384;55.750;48.746;2023-04-03T02:00:51;99308.69;;;4.72;69.25
78986;BME280;68384;55.750;48.746;2023-04-03T02:01:55;99297.38;;;4.69;69.08
78986;BME280;68384;55.750;48.746;2023-04-03T02:02:59;99303.50;;;4.71;69.11
78986;BME280;68384;55.750;48.746;2023-04-03T02:04:03;99307.75;;;4.70;69.29
78986;BME280;68384;55.750;48.746;2023-04-03T02:05:08;99306.75;;;4.68;69.24
78986;BME280;68384;55.750;48.746;2023-04-03T02:06:11;99297.25;;;4.66;69.28
78986;BME280;68384;55.750;48.746;2023-04-03T02:07:14;99304.88;;;4.64;69.32
78986;BME280;68384;55.750;48.746;2023-04-03T02:08:18;99297.13;;;4.63;69.25
78986;BME280;68384;55.750;48.746;2023-04-03T02:09:20;99299.59;;;4.61;69.40
78986;BME280;68384;55.750;48.746;2023-04-03T02:10:24;99304.69;;;4.60;69.59
78986;BME280;68384;55.750;48.746;2023-04-03T02:11:26;99307.09;;;4.57;69.59
78986;BME280;68384;55.750;48.746;2023-04-03T02:12:30;99305.31;;;4.56;69.45
78986;BME280;68384;55.750;48.746;2023-04-03T02:13:32;99304.28;;;4.52;69.56
78986;BME280;68384;55.750;48.746;2023-04-03T02:14:36;99307.69;;;4.51;69.42
78986;BME280;68384;55.750;48.746;2023-04-03T02:15:39;99309.38;;;4.51;69.57
78986;BME280;68384;55.750;48.746;2023-04-03T02:16:46;99308.44;;;4.49;69.81
78986;BME280;68384;55.750;48.746;2023-04-03T02:17:49;99306.66;;;4.48;69.72
78986;BME280;68384;55.750;48.746;2023-04-03T02:18:53;99310.00;;;4.47;69.98
78986;BME280;68384;55.750;48.746;2023-04-03T02:19:57;99304.03;;;4.46;69.93
78986;BME280;68384;55.750;48.746;2023-04-03T02:21:00;99303.06;;;4.44;69.70
78986;BME280;68384;55.750;48.746;2023-04-03T02:22:04;99300.44;;;4.43;70.14
78986;BME280;68384;55.750;48.746;2023-04-03T02:23:07;99309.81;;;4.42;70.18
78986;BME280;68384;55.750;48.746;2023-04-03T02:24:10;99302.13;;;4.42;70.14
78986;BME280;68384;55.750;48.746;2023-04-03T02:25:13;99302.13;;;4.42;70.16
78986;BME280;68384;55.750;48.746;2023-04-03T02:26:17;99295.88;;;4.37;70.38
78986;BME280;68384;55.750;48.746;2023-04-03T02:27:19;99299.34;;;4.37;70.07
78986;BME280;68384;55.750;48.746;2023-04-03T02:28:23;99297.56;;;4.36;70.17
78986;BME280;68384;55.750;48.746;2023-04-03T02:29:26;99302.53;;;4.33;70.29
78986;BME280;68384;55.750;48.746;2023-04-03T02:30:30;99306.06;;;4.35;70.28
78986;BME280;68384;55.750;48.746;2023-04-03T02:31:32;99306.88;;;4.34;70.29
78986;BME280;68384;55.750;48.746;2023-04-03T02:32:36;99310.34;;;4.35;70.11
78986;BME280;68384;55.750;48.746;2023-04-03T02:33:39;99300.06;;;4.35;70.32
78986;BME280;68384;55.750;48.746;2023-04-03T02:34:43;99306.88;;;4.34;70.29
78986;BME280;68384;55.750;48.746;2023-04-03T02:35:47;99303.44;;;4.34;70.11
78986;BME280;68384;55.750;48.746;2023-04-03T02:36:55;99307.69;;;4.33;70.03
78986;BME280;68384;55.750;48.746;2023-04-03T02:37:57;99302.50;;;4.32;70.17
78986;BME280;68384;55.750;48.746;2023-04-03T02:39:01;99299.03;;;4.31;70.07
78986;BME280;68384;55.750;48.746;2023-04-03T02:40:05;99299.03;;;4.31;70.19
78986;BME280;68384;55.750;48.746;2023-04-03T02:41:11;99293.13;;;4.32;69.98
78986;BME280;68384;55.750;48.746;2023-04-03T02:42:14;99300.81;;;4.32;70.06
78986;BME280;68384;55.750;48.746;2023-04-03T02:43:18;99298.25;;;4.32;70.06
78986;BME280;68384;55.750;48.746;2023-04-03T02:44:20;99295.69;;;4.32;69.97
78986;BME280;68384;55.750;48.746;2023-04-03T02:45:25;99300.81;;;4.32;70.08
78986;BME280;68384;55.750;48.746;2023-04-03T02:46:28;99299.09;;;4.33;69.88
78986;BME280;68384;55.750;48.746;2023-04-03T02:47:31;99300.06;;;4.35;69.67
78986;BME280;68384;55.750;48.746;2023-04-03T02:48:34;99301.03;;;4.37;69.97
78986;BME280;68384;55.750;48.746;2023-04-03T02:49:38;99305.41;;;4.39;69.59
78986;BME280;68384;55.750;48.746;2023-04-03T02:50:41;99300.28;;;4.39;69.67
78986;BME280;68384;55.750;48.746;2023-04-03T02:51:46;99297.78;;;4.41;69.62
78986;BME280;68384;55.750;48.746;2023-04-03T02:52:49;99302.13;;;4.42;69.21
78986;BME280;68384;55.750;48.746;2023-04-03T02:53:53;99297.88;;;4.43;69.28
78986;BME280;68384;55.750;48.746;2023-04-03T02:54:55;99296.03;;;4.40;69.57
78986;BME280;68384;55.750;48.746;2023-04-03T02:55:59;99300.50;;;4.44;69.10
78986;BME280;68384;55.750;48.746;2023-04-03T02:57:02;99303.16;;;4.46;69.00
78986;BME280;68384;55.750;48.746;2023-04-03T02:58:06;99296.34;;;4.46;69.06
78986;BME280;68384;55.750;48.746;2023-04-03T02:59:10;99297.13;;;4.45;69.23
78986;BME280;68384;55.750;48.746;2023-04-03T03:00:14;99297.28;;;4.48;68.74
78986;BME280;68384;55.750;48.746;2023-04-03T03:01:17;99295.59;;;4.49;68.92
78986;BME280;68384;55.750;48.746;2023-04-03T03:02:21;99297.34;;;4.50;68.77
78986;BME280;68384;55.750;48.746;2023-04-03T03:03:23;99295.59;;;4.49;68.80
78986;BME280;68384;55.750;48.746;2023-04-03T03:04:27;99299.25;;;4.54;68.63
78986;BME280;68384;55.750;48.746;2023-04-03T03:05:30;99298.41;;;4.55;68.44
78986;BME280;68384;55.750;48.746;2023-04-03T03:06:33;99299.41;;;4.57;68.39
78986;BME280;68384;55.750;48.746;2023-04-03T03:07:37;99296.09;;;4.59;68.20
78986;BME280;68384;55.750;48.746;2023-04-03T03:08:41;99290.22;;;4.62;68.42
78986;BME280;68384;55.750;48.746;2023-04-03T03:09:44;99295.50;;;4.65;67.97
78986;BME280;68384;55.750;48.746;2023-04-03T03:10:47;99293.00;;;4.66;67.89
78986;BME280;68384;55.750;48.746;2023-04-03T03:11:51;99294.03;;;4.70;67.91
78986;BME280;68384;55.750;48.746;2023-04-03T03:12:54;99298.41;;;4.72;67.45
78986;BME280;68384;55.750;48.746;2023-04-03T03:13:57;99297.66;;;4.75;67.78
78986;BME280;68384;55.750;48.746;2023-04-03T03:15:00;99286.66;;;4.77;67.21
78986;BME280;68384;55.750;48.746;2023-04-03T03:16:03;99296.19;;;4.80;67.22
78986;BME280;68384;55.750;48.746;2023-04-03T03:17:07;99296.34;;;4.83;66.92
78986;BME280;68384;55.750;48.746;2023-04-03T03:18:11;99300.75;;;4.85;67.41
78986;BME280;68384;55.750;48.746;2023-04-03T03:19:14;99302.69;;;4.89;66.91
78986;BME280;68384;55.750;48.746;2023-04-03T03:20:17;99301.09;;;4.93;66.85
78986;BME280;68384;55.750;48.746;2023-04-03T03:21:20;99302.88;;;4.94;66.47
78986;BME280;68384;55.750;48.746;2023-04-03T03:22:23;99305.63;;;4.98;66.63
78986;BME280;68384;55.750;48.746;2023-04-03T03:23:28;99307.47;;;5.01;66.77
78986;BME280;68384;55.750;48.746;2023-04-03T03:24:32;99305.94;;;5.05;66.64
78986;BME280;68384;55.750;48.746;2023-04-03T03:25:38;99305.19;;;5.07;66.17
78986;BME280;68384;55.750;48.746;2023-04-03T03:26:42;99307.00;;;5.10;65.87
78986;BME280;68384;55.750;48.746;2023-04-03T03:27:44;99310.59;;;5.13;65.93
78986;BME280;68384;55.750;48.746;2023-04-03T03:28:48;99308.16;;;5.16;65.70
78986;BME280;68384;55.750;48.746;2023-04-03T03:29:50;99305.59;;;5.16;65.50
78986;BME280;68384;55.750;48.746;2023-04-03T03:30:54;99303.97;;;5.18;65.84
78986;BME280;68384;55.750;48.746;2023-04-03T03:31:57;99308.31;;;5.19;65.44
78986;BME280;68384;55.750;48.746;2023-04-03T03:33:00;99310.13;;;5.22;65.52
78986;BME280;68384;55.750;48.746;2023-04-03T03:34:03;99311.03;;;5.22;65.06
78986;BME280;68384;55.750;48.746;2023-04-03T03:35:07;99315.31;;;5.23;65.25
78986;BME280;68384;55.750;48.746;2023-04-03T03:36:10;99309.25;;;5.21;64.98
78986;BME280;68384;55.750;48.746;2023-04-03T03:37:14;99307.63;;;5.23;65.02
78986;BME280;68384;55.750;48.746;2023-04-03T03:38:17;99306.16;;;5.28;64.51
78986;BME280;68384;55.750;48.746;2023-04-03T03:39:22;99310.47;;;5.29;64.71
78986;BME280;68384;55.750;48.746;2023-04-03T03:40:26;99316.63;;;5.33;64.18
78986;BME280;68384;55.750;48.746;2023-04-03T03:41:28;99298.63;;;5.33;64.15
78986;BME280;68384;55.750;48.746;2023-04-03T03:42:33;99309.94;;;5.36;64.26
78986;BME280;68384;55.750;48.746;2023-04-03T03:43:35;99315.13;;;5.38;63.75
78986;BME280;68384;55.750;48.746;2023-04-03T03:44:39;99310.75;;;5.35;63.55
78986;BME280;68384;55.750;48.746;2023-04-03T03:45:41;99321.16;;;5.38;63.29
78986;BME280;68384;55.750;48.746;2023-04-03T03:46:45;99314.47;;;5.42;63.21
78986;BME280;68384;55.750;48.746;2023-04-03T03:47:47;99313.59;;;5.41;63.33
78986;BME280;68384;55.750;48.746;2023-04-03T03:48:51;99317.84;;;5.41;62.92
78986;BME280;68384;55.750;48.746;2023-04-03T03:49:53;99311.97;;;5.43;62.79
78986;BME280;68384;55.750;48.746;2023-04-03T03:50:57;99317.28;;;5.48;62.94
78986;BME280;68384;55.750;48.746;2023-04-03T03:52:00;99319.06;;;5.49;62.90
78986;BME280;68384;55.750;48.746;2023-04-03T03:53:03;99313.97;;;5.50;62.88
78986;BME280;68384;55.750;48.746;2023-04-03T03:54:06;99315.88;;;5.54;63.08
78986;BME280;68384;55.750;48.746;2023-04-03T03:55:12;99310.78;;;5.56;62.80
78986;BME280;68384;55.750;48.746;2023-04-03T03:56:14;99322.88;;;5.58;62.71
78986;BME280;68384;55.750;48.746;2023-04-03T03:57:18;99310.72;;;5.54;62.59
78986;BME280;68384;55.750;48.746;2023-04-03T03:58:21;99316.06;;;5.59;62.52
78986;BME280;68384;55.750;48.746;2023-04-03T03:59:24;99313.44;;;5.57;62.35
78986;BME280;68384;55.750;48.746;2023-04-03T04:00:27;99313.50;;;5.59;62.62
78986;BME280;68384;55.750;48.746;2023-04-03T04:01:31;99309.38;;;5.63;62.70
78986;BME280;68384;55.750;48.746;2023-04-03T04:02:35;99311.13;;;5.64;62.45
78986;BME280;68384;55.750;48.746;2023-04-03T04:04:05;99304.28;;;5.64;62.06
78986;BME280;68384;55.750;48.746;2023-04-03T04:05:09;99310.25;;;5.63;61.44
78986;BME280;68384;55.750;48.746;2023-04-03T04:06:12;99308.66;;;5.67;62.27
78986;BME280;68384;55.750;48.746;2023-04-03T04:07:16;99308.81;;;5.70;61.82
78986;BME280;68384;55.750;48.746;2023-04-03T04:08:19;99313.19;;;5.72;61.31
78986;BME280;68384;55.750;48.746;2023-04-03T04:09:22;99314.09;;;5.73;61.33
78986;BME280;68384;55.750;48.746;2023-04-03T04:10:26;99293.13;;;5.64;61.02
78986;BME280;68384;55.750;48.746;2023-04-03T04:11:30;99315.72;;;5.71;60.86
78986;BME280;68384;55.750;48.746;2023-04-03T04:12:34;99317.28;;;5.67;60.74
78986;BME280;68384;55.750;48.746;2023-04-03T04:13:38;99314.69;;;5.67;60.62
78986;BME280;68384;55.750;48.746;2023-04-03T04:14:41;99313.19;;;5.72;60.54
78986;BME280;68384;55.750;48.746;2023-04-03T04:15:45;99315.06;;;5.75;60.83
78986;BME280;68384;55.750;48.746;2023-04-03T04:16:47;99322.00;;;5.77;60.90
78986;BME280;68384;55.750;48.746;2023-04-03T04:17:51;99321.25;;;5.80;61.01
78986;BME280;68384;55.750;48.746;2023-04-03T04:18:55;99317.09;;;5.83;60.74
78986;BME280;68384;55.750;48.746;2023-04-03T04:19:59;99320.78;;;5.88;60.97
78986;BME280;68384;55.750;48.746;2023-04-03T04:21:01;99312.94;;;5.85;60.64
78986;BME280;68384;55.750;48.746;2023-04-03T04:22:05;99314.94;;;5.92;60.09
78986;BME280;68384;55.750;48.746;2023-04-03T04:23:08;99318.50;;;5.96;60.49
78986;BME280;68384;55.750;48.746;2023-04-03T04:24:12;99327.97;;;5.97;59.91
78986;BME280;68384;55.750;48.746;2023-04-03T04:25:15;99315.94;;;5.96;59.53
78986;BME280;68384;55.750;48.746;2023-04-03T04:26:19;99313.50;;;5.99;59.08
78986;BME280;68384;55.750;48.746;2023-04-03T04:27:22;99314.25;;;5.96;59.00
78986;BME280;68384;55.750;48.746;2023-04-03T04:28:26;99318.78;;;6.02;58.95
78986;BME280;68384;55.750;48.746;2023-04-03T04:29:28;99313.72;;;6.05;58.66
78986;BME280;68384;55.750;48.746;2023-04-03T04:30:37;99318.16;;;6.07;58.60
78986;BME280;68384;55.750;48.746;2023-04-03T04:31:39;99319.88;;;6.08;58.90
78986;BME280;68384;55.750;48.746;2023-04-03T04:32:43;99313.22;;;6.13;58.48
78986;BME280;68384;55.750;48.746;2023-04-03T04:33:46;99314.13;;;6.14;58.30
78986;BME280;68384;55.750;48.746;2023-04-03T04:34:49;99309.09;;;6.17;58.11
78986;BME280;68384;55.750;48.746;2023-04-03T04:35:52;99312.59;;;6.19;57.94
78986;BME280;68384;55.750;48.746;2023-04-03T04:36:55;99313.63;;;6.23;57.68
78986;BME280;68384;55.750;48.746;2023-04-03T04:37:58;99313.00;;;6.28;57.88
78986;BME280;68384;55.750;48.746;2023-04-03T04:39:02;99314.88;;;6.32;57.76
78986;BME280;68384;55.750;48.746;2023-04-03T04:40:06;99313.38;;;6.37;57.47
78986;BME280;68384;55.750;48.746;2023-04-03T04:41:10;99310.09;;;6.41;57.32
78986;BME280;68384;55.750;48.746;2023-04-03T04:42:14;99318.09;;;6.49;57.16
78986;BME280;68384;55.750;48.746;2023-04-03T04:43:18;99315.84;;;6.56;57.03
78986;BME280;68384;55.750;48.746;2023-04-03T04:44:21;99315.13;;;6.60;57.06
78986;BME280;68384;55.750;48.746;2023-04-03T04:45:25;99316.19;;;6.65;56.79
78986;BME280;68384;55.750;48.746;2023-04-03T04:46:27;99322.34;;;6.69;56.93
78986;BME280;68384;55.750;48.746;2023-04-03T04:47:31;99319.94;;;6.73;56.70
78986;BME280;68384;55.750;48.746;2023-04-03T04:48:34;99323.47;;;6.75;56.36
78986;BME280;68384;55.750;48.746;2023-04-03T04:49:38;99316.97;;;6.85;56.56
78986;BME280;68384;55.750;48.746;2023-04-03T04:50:40;99314.56;;;6.90;55.96
78986;BME280;68384;55.750;48.746;2023-04-03T04:51:44;99318.22;;;6.95;55.93
78986;BME280;68384;55.750;48.746;2023-04-03T04:52:53;99316.56;;;6.97;55.70
78986;BME280;68384;55.750;48.746;2023-04-03T04:53:56;99325.47;;;7.05;55.71
78986;BME280;68384;55.750;48.746;2023-04-03T04:54:59;99315.31;;;7.09;55.24
78986;BME280;68384;55.750;48.746;2023-04-03T04:56:04;99318.09;;;7.14;55.16
78986;BME280;68384;55.750;48.746;2023-04-03T04:57:07;99320.75;;;7.17;54.91
78986;BME280;68384;55.750;48.746;2023-04-03T04:58:11;99317.44;;;7.19;54.97
78986;BME280;68384;55.750;48.746;2023-04-03T04:59:15;99322.66;;;7.22;55.16
78986;BME280;68384;55.750;48.746;2023-04-03T05:00:20;99319.41;;;7.26;55.11
78986;BME280;68384;55.750;48.746;2023-04-03T05:01:23;99325.59;;;7.30;55.26
78986;BME280;68384;55.750;48.746;2023-04-03T05:02:26;99306.59;;;7.28;54.90
78986;BME280;68384;55.750;48.746;2023-04-03T05:03:30;99318.13;;;7.38;54.47
78986;BME280;68384;55.750;48.746;2023-04-03T05:04:33;99314.78;;;7.40;54.61
78986;BME280;68384;55.750;48.746;2023-04-03T05:05:36;99310.63;;;7.44;54.56
78986;BME280;68384;55.750;48.746;2023-04-03T05:06:40;99323.69;;;7.50;54.86
78986;BME280;68384;55.750;48.746;2023-04-03T05:07:43;99319.50;;;7.52;54.28
78986;BME280;68384;55.750;48.746;2023-04-03T05:08:46;99316.16;;;7.54;54.32
78986;BME280;68384;55.750;48.746;2023-04-03T05:09:50;99319.91;;;7.64;54.21
78986;BME280;68384;55.750;48.746;2023-04-03T05:10:53;99319.25;;;7.69;53.89
78986;BME280;68384;55.750;48.746;2023-04-03T05:11:57;99315.88;;;7.70;53.81
78986;BME280;68384;55.750;48.746;2023-04-03T05:13:00;99314.38;;;7.77;53.41
78986;BME280;68384;55.750;48.746;2023-04-03T05:14:04;99320.59;;;7.82;53.53
78986;BME280;68384;55.750;48.746;2023-04-03T05:15:09;99323.31;;;7.86;53.44
78986;BME280;68384;55.750;48.746;2023-04-03T05:16:13;99314.69;;;7.86;53.07
78986;BME280;68384;55.750;48.746;2023-04-03T05:17:15;99316.56;;;7.90;52.57
78986;BME280;68384;55.750;48.746;2023-04-03T05:18:19;99326.22;;;7.96;52.77
78986;BME280;68384;55.750;48.746;2023-04-03T05:19:22;99322.91;;;8.00;52.82
78986;BME280;68384;55.750;48.746;2023-04-03T05:20:25;99328.13;;;8.01;52.50
78986;BME280;68384;55.750;48.746;2023-04-03T05:21:28;99329.94;;;8.04;52.75
78986;BME280;68384;55.750;48.746;2023-04-03T05:22:34;99335.19;;;8.07;52.75
78986;BME280;68384;55.750;48.746;2023-04-03T05:23:37;99324.97;;;8.10;52.87
78986;BME280;68384;55.750;48.746;2023-04-03T05:24:40;99334.63;;;8.15;52.46
78986;BME280;68384;55.750;48.746;2023-04-03T05:25:44;99329.63;;;8.20;52.48
78986;BME280;68384;55.750;48.746;2023-04-03T05:26:48;99324.59;;;8.24;52.51
78986;BME280;68384;55.750;48.746;2023-04-03T05:27:52;99317.72;;;8.25;52.34
78986;BME280;68384;55.750;48.746;2023-04-03T05:28:57;99297.75;;;8.19;52.14
78986;BME280;68384;55.750;48.746;2023-04-03T05:30:02;99298.94;;;8.29;52.07
78986;BME280;68384;55.750;48.746;2023-04-03T05:31:06;99314.81;;;8.41;52.09
78986;BME280;68384;55.750;48.746;2023-04-03T05:32:09;99289.53;;;8.31;51.95
78986;BME280;68384;55.750;48.746;2023-04-03T05:33:13;99314.19;;;8.48;51.74
78986;BME280;68384;55.750;48.746;2023-04-03T05:34:16;99319.44;;;8.51;51.80
78986;BME280;68384;55.750;48.746;2023-04-03T05:35:20;99310.88;;;8.52;51.75
78986;BME280;68384;55.750;48.746;2023-04-03T05:36:24;99320.22;;;8.48;51.69
78986;BME280;68384;55.750;48.746;2023-04-03T05:37:27;99323.06;;;8.56;51.49
78986;BME280;68384;55.750;48.746;2023-04-03T05:38:31;99321.41;;;8.58;51.68
78986;BME280;68384;55.750;48.746;2023-04-03T05:39:34;99321.50;;;8.61;51.57